Time;durP1;ratioP1;P1;durP2;ratioP2;P2;SDS_P1;SDS_P2;PMS_P1;PMS_P2;Temp;Humidity;BMP_temperature;BMP_pressure;BME280_temperature;BME280_humidity;BME280_pressure;Samples;Min_cycle;Max_cycle;Signal;HPM_P1;HPM_P2
2022/05/23 00:00:09;;;;;;;12.02;5.68;;;17.40;99.90;;;;;;5089553;28;20031;-80
2022/05/23 00:02:34;;;;;;;7.20;5.15;;;17.40;99.90;;;;;;5094034;28;20067;-81
2022/05/23 00:05:00;;;;;;;6.85;4.85;;;17.40;99.90;;;;;;5093164;28;20051;-80
2022/05/23 00:07:32;;;;;;;10.18;4.95;;;17.30;99.90;;;;;;5093687;28;20039;-80
2022/05/23 00:09:59;;;;;;;7.13;5.00;;;17.30;99.90;;;;;;5093365;28;20483;-79
2022/05/23 00:12:25;;;;;;;6.82;5.47;;;17.20;99.90;;;;;;5092847;28;20483;-80
2022/05/23 00:14:51;;;;;;;8.85;5.28;;;17.30;99.90;;;;;;5092768;28;20027;-81
2022/05/23 00:17:19;;;;;;;6.82;5.43;;;17.20;99.90;;;;;;5094234;28;20345;-79
2022/05/23 00:19:45;;;;;;;11.20;5.68;;;17.30;99.90;;;;;;5089459;28;20487;-80
2022/05/23 00:22:11;;;;;;;9.38;6.22;;;17.20;99.90;;;;;;5094093;28;20063;-80
2022/05/23 00:24:37;;;;;;;7.43;5.15;;;17.20;99.90;;;;;;5093498;28;20476;-79
2022/05/23 00:27:04;;;;;;;8.90;5.55;;;17.20;99.90;;;;;;5092517;28;20027;-81
2022/05/23 00:29:30;;;;;;;9.38;5.05;;;17.20;99.90;;;;;;5092707;28;20023;-80
2022/05/23 00:37:24;;;;;;;13.88;6.40;;;17.20;99.90;;;;;;5092441;28;20388;-80
2022/05/23 00:39:50;;;;;;;7.28;5.40;;;17.20;99.90;;;;;;5093711;28;20024;-79
2022/05/23 00:45:04;;;;;;;7.70;5.72;;;17.20;99.90;;;;;;5097110;28;20089;-80
2022/05/23 00:47:33;;;;;;;6.53;4.55;;;17.10;99.90;;;;;;5093575;28;20472;-79
2022/05/23 00:49:59;;;;;;;8.30;5.63;;;17.10;99.90;;;;;;5096411;28;20103;-79
2022/05/23 00:52:43;;;;;;;8.07;5.55;;;17.10;99.90;;;;;;5100674;28;20027;-81
2022/05/23 00:55:31;;;;;;;10.48;5.53;;;17.10;99.90;;;;;;5105353;28;20050;-80
2022/05/23 00:58:03;;;;;;;9.18;5.40;;;17.10;99.90;;;;;;5105636;28;20055;-80
2022/05/23 01:00:29;;;;;;;11.00;5.13;;;17.00;99.90;;;;;;5104893;28;20036;-80
2022/05/23 01:03:01;;;;;;;9.00;5.15;;;17.00;99.90;;;;;;5092835;28;20024;-80
2022/05/23 01:05:27;;;;;;;8.52;4.95;;;17.00;99.90;;;;;;5093450;28;20028;-80
2022/05/23 01:07:53;;;;;;;9.38;5.63;;;17.00;99.90;;;;;;5092266;28;20020;-80
2022/05/23 01:10:19;;;;;;;8.18;5.05;;;16.90;99.90;;;;;;5091488;28;20050;-80
2022/05/23 01:12:45;;;;;;;7.93;5.82;;;16.90;99.90;;;;;;5092175;28;20028;-79
2022/05/23 01:15:23;;;;;;;5.93;5.28;;;16.80;99.90;;;;;;5092694;28;20081;-80
2022/05/23 01:17:48;;;;;;;7.75;4.95;;;16.80;99.90;;;;;;5090899;28;20020;-81
2022/05/23 01:20:15;;;;;;;5.75;5.05;;;16.80;99.90;;;;;;5092744;28;20486;-80
2022/05/23 01:22:46;;;;;;;10.77;5.20;;;16.70;99.90;;;;;;5091969;28;20024;-80
2022/05/23 01:25:28;;;;;;;5.18;4.63;;;16.70;99.90;;;;;;5092821;28;20016;-80
2022/05/23 01:27:53;;;;;;;5.32;4.70;;;16.70;99.90;;;;;;5085199;28;20039;-80
2022/05/23 01:30:20;;;;;;;9.80;5.97;;;16.60;99.90;;;;;;5091910;28;20460;-80
2022/05/23 01:32:45;;;;;;;7.05;4.38;;;16.60;99.90;;;;;;5092621;28;20436;-80
2022/05/23 01:35:12;;;;;;;7.05;4.47;;;16.50;99.90;;;;;;5092261;28;20111;-81
2022/05/23 01:37:38;;;;;;;8.57;5.80;;;16.50;99.90;;;;;;5092100;28;20063;-80
2022/05/23 01:40:07;;;;;;;7.95;4.82;;;16.50;99.90;;;;;;5092851;28;20425;-81
2022/05/23 01:42:33;;;;;;;8.98;4.63;;;16.40;99.90;;;;;;5092880;28;20135;-81
2022/05/23 01:44:59;;;;;;;5.25;4.47;;;16.40;99.90;;;;;;5091905;28;20030;-81
2022/05/23 01:47:24;;;;;;;11.60;5.90;;;16.40;99.90;;;;;;5091940;28;20123;-80
2022/05/23 01:49:50;;;;;;;4.88;4.35;;;16.40;99.90;;;;;;5091812;28;20063;-81
2022/05/23 01:52:16;;;;;;;7.28;4.93;;;16.30;99.90;;;;;;5091599;28;20073;-79
2022/05/23 01:54:41;;;;;;;7.97;5.13;;;16.30;99.90;;;;;;5092070;28;20031;-80
2022/05/23 01:57:09;;;;;;;5.55;4.32;;;16.30;99.90;;;;;;5090634;28;20531;-80
2022/05/23 02:02:19;;;;;;;5.03;4.28;;;16.20;99.90;;;;;;5091613;28;20113;-80
2022/05/23 02:04:45;;;;;;;8.23;4.80;;;16.20;99.90;;;;;;5091750;28;20075;-79
2022/05/23 02:07:12;;;;;;;8.10;4.90;;;16.20;99.90;;;;;;5091315;28;20529;-81
2022/05/23 02:09:38;;;;;;;7.40;4.95;;;16.20;99.90;;;;;;5090872;28;20380;-80
2022/05/23 02:12:05;;;;;;;7.25;5.30;;;16.20;99.90;;;;;;5090481;28;20468;-81
2022/05/23 02:14:30;;;;;;;7.90;5.10;;;16.20;99.90;;;;;;5091452;28;20032;-80
2022/05/23 02:16:56;;;;;;;7.80;4.80;;;16.20;99.90;;;;;;5092101;28;20028;-79
2022/05/23 02:19:21;;;;;;;11.10;5.45;;;16.20;99.90;;;;;;5091433;28;20039;-81
2022/05/23 02:21:47;;;;;;;10.15;4.90;;;16.20;99.90;;;;;;5091943;28;20039;-80
2022/05/23 02:24:12;;;;;;;8.02;5.15;;;16.20;99.90;;;;;;5090629;28;20024;-80
2022/05/23 02:26:38;;;;;;;7.35;4.65;;;16.20;99.90;;;;;;5091940;28;20055;-80
2022/05/23 02:29:04;;;;;;;6.80;4.65;;;16.20;99.90;;;;;;5091816;28;20447;-80
2022/05/23 02:31:30;;;;;;;11.10;4.75;;;16.20;99.90;;;;;;5091829;28;20101;-81
2022/05/23 02:33:56;;;;;;;9.05;4.88;;;16.20;99.90;;;;;;5090710;28;20035;-80
2022/05/23 02:36:22;;;;;;;6.90;5.32;;;16.20;99.90;;;;;;5091501;28;20383;-80
2022/05/23 02:38:47;;;;;;;7.18;4.20;;;16.20;99.90;;;;;;5091091;28;20020;-81
2022/05/23 02:41:13;;;;;;;6.88;4.72;;;16.20;99.90;;;;;;5090999;28;20051;-80
2022/05/23 02:43:38;;;;;;;5.80;4.45;;;16.10;99.90;;;;;;5091429;28;20089;-81
2022/05/23 02:46:04;;;;;;;7.15;5.22;;;16.10;99.90;;;;;;5091497;28;20020;-81
2022/05/23 02:48:29;;;;;;;6.13;4.75;;;16.10;99.90;;;;;;5099160;28;20016;-79
2022/05/23 02:50:55;;;;;;;6.68;4.95;;;16.10;99.90;;;;;;5093073;28;20032;-81
2022/05/23 02:53:21;;;;;;;4.63;4.10;;;16.10;99.90;;;;;;5090642;28;20069;-82
2022/05/23 02:55:47;;;;;;;9.10;5.07;;;16.10;99.90;;;;;;5095153;28;20039;-80
2022/05/23 02:58:13;;;;;;;8.88;5.15;;;16.10;99.90;;;;;;5108186;28;20052;-80
2022/05/23 03:00:38;;;;;;;9.25;5.93;;;16.10;99.90;;;;;;5108629;28;20032;-79
2022/05/23 03:03:06;;;;;;;6.25;4.82;;;16.00;99.90;;;;;;5110161;28;20036;-80
2022/05/23 03:05:52;;;;;;;5.53;4.88;;;16.00;99.90;;;;;;5096646;28;20016;-80
2022/05/23 03:08:23;;;;;;;7.63;5.00;;;16.00;99.90;;;;;;5087866;28;20055;-80
2022/05/23 03:10:51;;;;;;;8.82;5.70;;;15.90;99.90;;;;;;5094645;28;20036;-81
2022/05/23 03:13:16;;;;;;;8.73;4.90;;;15.90;99.90;;;;;;5095849;28;20024;-82
2022/05/23 03:15:42;;;;;;;8.50;4.88;;;15.90;99.90;;;;;;5094164;28;20491;-80
2022/05/23 03:18:09;;;;;;;8.85;4.28;;;15.90;99.90;;;;;;5094647;28;20078;-81
2022/05/23 03:20:35;;;;;;;7.85;5.07;;;15.90;99.90;;;;;;5094422;28;20036;-80
2022/05/23 03:28:34;;;;;;;4.88;4.28;;;15.80;99.90;;;;;;5095017;28;20111;-79
2022/05/23 03:31:00;;;;;;;6.97;4.85;;;15.70;99.90;;;;;;5093527;28;20126;-80
2022/05/23 03:33:25;;;;;;;5.15;4.65;;;15.70;99.90;;;;;;5094255;28;20111;-80
2022/05/23 03:35:51;;;;;;;7.10;4.85;;;15.70;99.90;;;;;;5094026;28;20039;-82
2022/05/23 03:38:17;;;;;;;7.32;4.38;;;15.70;99.90;;;;;;5093628;28;20016;-80
2022/05/23 03:40:43;;;;;;;5.32;4.57;;;15.70;99.90;;;;;;5094542;28;20502;-80
2022/05/23 03:43:09;;;;;;;7.78;4.20;;;16.20;99.90;;;;;;5095214;28;20063;-81
2022/05/23 03:45:36;;;;;;;8.52;5.00;;;15.60;99.90;;;;;;5093067;28;20077;-80
2022/05/23 03:48:03;;;;;;;7.72;4.82;;;15.60;99.90;;;;;;5094126;28;20035;-78
2022/05/23 03:50:30;;;;;;;6.95;4.30;;;15.60;99.90;;;;;;5094265;28;20028;-80
2022/05/23 03:52:56;;;;;;;6.22;4.65;;;15.60;99.90;;;;;;5094148;28;20035;-80
2022/05/23 03:55:23;;;;;;;6.75;4.70;;;15.60;99.90;;;;;;5094031;28;20024;-79
2022/05/23 03:57:48;;;;;;;7.85;4.22;;;15.60;99.90;;;;;;5092923;28;20048;-80
2022/05/23 04:00:14;;;;;;;7.30;4.82;;;15.60;99.90;;;;;;5093717;28;20027;-78
2022/05/23 04:02:41;;;;;;;6.32;4.38;;;15.60;99.90;;;;;;5093148;28;20081;-78
2022/05/23 04:05:09;;;;;;;7.72;4.80;;;15.60;99.90;;;;;;5093066;28;20024;-79
2022/05/23 04:07:36;;;;;;;5.63;4.63;;;15.60;99.90;;;;;;5093524;28;20024;-81
2022/05/23 04:10:06;;;;;;;6.63;4.38;;;15.60;99.90;;;;;;5093640;28;20024;-79
2022/05/23 04:12:32;;;;;;;7.88;5.13;;;15.60;99.90;;;;;;5092855;28;20016;-79
2022/05/23 04:14:57;;;;;;;9.50;5.07;;;15.60;99.90;;;;;;5095629;28;20529;-80
2022/05/23 04:17:23;;;;;;;5.75;4.65;;;15.60;99.90;;;;;;5093920;28;20365;-79
2022/05/23 04:19:49;;;;;;;7.63;4.95;;;15.70;99.90;;;;;;5091735;28;20036;-79
2022/05/23 04:22:15;;;;;;;8.60;4.75;;;15.70;99.90;;;;;;5093613;28;20119;-79
2022/05/23 04:24:40;;;;;;;6.55;5.00;;;15.70;99.90;;;;;;5093313;28;20048;-79
2022/05/23 04:27:06;;;;;;;6.55;4.60;;;15.80;99.90;;;;;;5092483;28;20031;-79
2022/05/23 04:29:31;;;;;;;5.28;4.75;;;15.80;99.90;;;;;;5093891;28;20016;-80
2022/05/23 04:31:57;;;;;;;8.02;5.22;;;15.80;99.90;;;;;;5094518;28;20031;-79
2022/05/23 04:37:07;;;;;;;5.22;4.72;;;15.80;99.90;;;;;;5093711;28;20085;-80
2022/05/23 04:39:32;;;;;;;5.82;5.07;;;15.80;99.90;;;;;;5092675;28;20024;-80
2022/05/23 04:42:00;;;;;;;5.28;4.70;;;15.80;99.90;;;;;;5093222;28;20040;-79
2022/05/23 04:44:26;;;;;;;5.25;4.75;;;15.80;99.90;;;;;;5093001;28;20103;-79
2022/05/23 04:49:42;;;;;;;5.47;4.80;;;15.80;99.90;;;;;;5085064;28;20062;-79
2022/05/23 04:52:09;;;;;;;5.22;4.63;;;15.90;99.90;;;;;;5097224;28;20024;-80
2022/05/23 04:54:36;;;;;;;9.65;5.00;;;15.90;99.90;;;;;;5101476;28;20039;-79
2022/05/23 04:57:02;;;;;;;10.98;5.10;;;16.50;99.90;;;;;;5102889;28;20047;-78
2022/05/23 04:59:27;;;;;;;10.90;4.85;;;16.10;99.90;;;;;;5092881;28;20024;-79
2022/05/23 05:01:53;;;;;;;11.25;6.38;;;16.20;99.90;;;;;;5091795;28;20028;-79
2022/05/23 05:04:18;;;;;;;10.63;5.70;;;16.30;99.90;;;;;;5096298;28;20020;-79
2022/05/23 05:06:44;;;;;;;5.75;4.88;;;16.40;99.90;;;;;;5111227;28;20012;-80
2022/05/23 05:09:09;;;;;;;8.52;5.20;;;16.50;99.90;;;;;;5096011;28;20407;-78
2022/05/23 05:11:37;;;;;;;10.85;4.88;;;16.70;99.90;;;;;;5110187;28;20032;-77
2022/05/23 05:14:05;;;;;;;9.50;5.57;;;16.80;99.90;;;;;;5091294;28;20044;-78
2022/05/23 05:16:31;;;;;;;9.18;5.70;;;16.90;99.90;;;;;;5090876;28;20111;-79
2022/05/23 05:18:57;;;;;;;6.40;5.15;;;16.90;99.90;;;;;;5089517;28;20035;-78
2022/05/23 05:21:23;;;;;;;7.38;5.00;;;16.90;99.90;;;;;;5091927;28;20040;-79
2022/05/23 05:23:49;;;;;;;13.88;6.30;;;16.90;99.90;;;;;;5090660;28;20114;-79
2022/05/23 05:26:15;;;;;;;9.68;5.80;;;16.90;99.90;;;;;;5090602;28;20111;-78
2022/05/23 05:28:40;;;;;;;9.45;5.47;;;16.90;99.90;;;;;;5091204;28;20055;-79
2022/05/23 05:31:14;;;;;;;9.32;5.25;;;16.90;99.90;;;;;;5089738;28;20369;-79
2022/05/23 05:33:48;;;;;;;8.68;5.28;;;16.90;99.90;;;;;;5091263;28;20031;-79
2022/05/23 05:36:19;;;;;;;7.35;5.22;;;17.00;99.90;;;;;;5091109;28;20029;-79
2022/05/23 05:38:49;;;;;;;;;;;17.00;99.90;;;;;;5092671;28;20380;-80
2022/05/23 05:41:20;;;;;;;6.73;5.67;;;17.00;99.90;;;;;;5091601;28;19916;-79
2022/05/23 05:43:48;;;;;;;;;;;17.10;99.90;;;;;;5090856;28;20266;-78
2022/05/23 05:46:20;;;;;;;7.35;5.38;;;17.10;99.90;;;;;;5089676;28;19904;-79
2022/05/23 05:48:47;;;;;;;5.70;5.15;;;17.20;99.90;;;;;;5091218;28;20032;-80
2022/05/23 05:51:17;;;;;;;7.90;5.45;;;17.30;99.90;;;;;;5089602;28;20062;-80
2022/05/23 05:53:43;;;;;;;6.40;5.72;;;17.40;99.90;;;;;;5090988;28;20161;-79
2022/05/23 05:56:10;;;;;;;7.82;5.78;;;17.40;99.90;;;;;;5090945;28;20036;-79
2022/05/23 05:58:36;;;;;;;5.97;5.40;;;17.40;99.90;;;;;;5090470;28;20086;-79
2022/05/23 06:01:02;;;;;;;7.65;6.28;;;17.40;99.90;;;;;;5091670;28;20078;-79
2022/05/23 06:03:28;;;;;;;10.27;5.20;;;17.50;99.90;;;;;;5091347;28;20020;-78
2022/05/23 06:11:24;;;;;;;8.27;5.43;;;17.60;99.90;;;;;;5088192;28;20034;-79
2022/05/23 06:13:53;;;;;;;10.45;5.47;;;17.60;99.90;;;;;;5091069;28;20036;-80
2022/05/23 06:16:19;;;;;;;9.18;6.57;;;17.70;99.90;;;;;;5090441;28;20472;-79
2022/05/23 06:18:45;;;;;;;11.77;6.38;;;17.70;99.90;;;;;;5090299;28;20026;-79
2022/05/23 06:21:12;;;;;;;9.40;6.00;;;17.80;99.90;;;;;;5090661;28;20040;-79
2022/05/23 06:23:38;;;;;;;8.57;6.13;;;17.80;99.90;;;;;;5088815;28;20103;-80
2022/05/23 06:26:04;;;;;;;8.55;6.50;;;17.90;99.90;;;;;;5090337;28;20031;-80
2022/05/23 06:28:29;;;;;;;8.13;7.30;;;18.00;99.90;;;;;;5090699;28;20024;-80
2022/05/23 06:30:57;;;;;;;8.63;6.93;;;18.10;99.90;;;;;;5090424;28;20032;-78
2022/05/23 06:33:23;;;;;;;7.18;6.43;;;18.20;99.90;;;;;;5087690;28;20058;-80
2022/05/23 06:35:49;;;;;;;10.18;5.90;;;18.30;99.90;;;;;;5090688;28;20035;-79
2022/05/23 06:38:15;;;;;;;10.43;7.38;;;18.40;99.90;;;;;;5090768;28;20016;-79
2022/05/23 06:40:40;;;;;;;8.38;6.53;;;18.50;99.90;;;;;;5090333;28;20361;-79
2022/05/23 06:43:06;;;;;;;7.07;6.13;;;18.60;99.90;;;;;;5091127;28;20031;-78
2022/05/23 06:45:31;;;;;;;10.88;7.90;;;18.60;99.90;;;;;;5090490;28;20016;-78
2022/05/23 06:47:57;;;;;;;8.35;6.38;;;18.60;99.90;;;;;;5090437;28;20053;-78
2022/05/23 06:50:22;;;;;;;7.30;5.97;;;18.80;99.90;;;;;;5089405;28;20032;-75
2022/05/23 06:52:49;;;;;;;10.02;7.75;;;18.80;99.90;;;;;;5089725;28;20028;-75
2022/05/23 06:55:14;;;;;;;8.82;6.32;;;18.90;99.90;;;;;;5089476;28;20121;-76
2022/05/23 06:57:40;;;;;;;11.27;7.20;;;19.00;99.90;;;;;;5089793;28;20122;-74
2022/05/23 07:00:09;;;;;;;8.02;6.13;;;19.00;99.90;;;;;;5090294;28;20032;-74
2022/05/23 07:02:35;;;;;;;11.95;6.32;;;19.00;99.90;;;;;;5090359;28;20051;-75
2022/05/23 07:13:13;;;;;;;8.77;7.97;;;18.80;99.90;;;;;;5086681;28;20094;-74
2022/05/23 07:15:46;;;;;;;9.65;7.07;;;18.70;99.90;;;;;;5082245;28;20032;-76
2022/05/23 07:18:15;;;;;;;10.98;7.18;;;18.80;99.90;;;;;;5089971;28;20024;-76
2022/05/23 07:20:44;;;;;;;10.55;6.82;;;18.90;99.90;;;;;;5090664;28;20020;-75
2022/05/23 07:23:11;;;;;;;11.20;7.38;;;19.00;99.90;;;;;;5089003;28;20062;-76
2022/05/23 07:25:36;;;;;;;11.02;6.70;;;19.10;99.90;;;;;;5088377;28;20020;-76
2022/05/23 07:28:02;;;;;;;8.13;7.30;;;19.20;99.90;;;;;;5086048;28;20031;-77
2022/05/23 07:30:28;;;;;;;11.82;8.18;;;19.40;99.90;;;;;;5089870;28;21609;-77
2022/05/23 07:32:54;;;;;;;9.98;8.23;;;19.50;99.90;;;;;;5089116;28;20024;-75
2022/05/23 07:35:20;;;;;;;12.00;9.35;;;19.70;99.90;;;;;;5089635;28;20032;-77
2022/05/23 07:37:46;;;;;;;9.23;7.70;;;19.80;99.90;;;;;;5089808;28;20024;-76
2022/05/23 07:40:12;;;;;;;8.55;7.53;;;19.90;99.90;;;;;;5089818;28;20076;-76
2022/05/23 07:42:38;;;;;;;10.80;8.20;;;20.10;99.90;;;;;;5089003;28;20052;-76
2022/05/23 07:45:06;;;;;;;10.05;9.13;;;20.20;99.90;;;;;;5089159;28;20024;-77
2022/05/23 07:47:32;;;;;;;10.52;8.90;;;20.40;99.90;;;;;;5091083;28;20040;-77
2022/05/23 07:49:57;;;;;;;12.88;9.35;;;20.50;99.90;;;;;;5089700;28;20503;-77
2022/05/23 07:52:23;;;;;;;9.05;8.20;;;20.60;99.90;;;;;;5090011;28;20510;-75
2022/05/23 08:00:33;;;;;;;15.25;8.90;;;20.80;99.90;;;;;;5090034;28;20028;-76
2022/05/23 08:03:05;;;;;;;9.63;8.63;;;21.00;99.90;;;;;;5077598;28;20694;-76
2022/05/23 08:05:32;;;;;;;9.55;7.78;;;21.00;99.90;;;;;;5093310;28;20035;-76
2022/05/23 08:07:57;;;;;;;11.20;7.18;;;21.20;99.90;;;;;;5093496;28;20394;-75
2022/05/23 08:10:25;;;;;;;14.07;9.77;;;21.20;99.90;;;;;;5094005;28;20020;-76
2022/05/23 08:12:53;;;;;;;8.07;7.28;;;21.40;99.90;;;;;;5093255;28;20051;-76
2022/05/23 08:15:24;;;;;;;9.52;7.30;;;21.50;99.90;;;;;;5093132;28;20020;-78
2022/05/23 08:17:50;;;;;;;9.55;8.02;;;21.60;99.90;;;;;;5092615;28;20038;-74
2022/05/23 08:20:16;;;;;;;8.73;7.93;;;21.60;99.90;;;;;;5092561;28;20547;-75
2022/05/23 08:22:42;;;;;;;10.07;7.28;;;21.70;99.90;;;;;;5092564;28;20042;-76
2022/05/23 08:25:08;;;;;;;15.93;9.35;;;21.80;99.90;;;;;;5092102;28;20024;-76
2022/05/23 08:27:34;;;;;;;13.43;9.43;;;21.90;99.90;;;;;;5093214;28;20387;-76
2022/05/23 08:30:01;;;;;;;8.45;7.70;;;21.90;99.90;;;;;;5092814;28;20094;-75
2022/05/23 08:32:26;;;;;;;10.88;7.78;;;21.90;99.90;;;;;;5093427;28;20476;-75
2022/05/23 08:34:52;;;;;;;9.88;8.75;;;21.90;99.90;;;;;;5092797;28;20070;-75
2022/05/23 08:37:18;;;;;;;14.30;8.80;;;22.00;99.90;;;;;;5093390;28;20080;-74
2022/05/23 08:39:44;;;;;;;9.02;8.13;;;22.00;99.90;;;;;;5092594;28;20032;-75
2022/05/23 08:42:28;;;;;;;10.13;6.85;;;22.10;99.90;;;;;;5093463;28;20051;-74
2022/05/23 08:45:34;;;;;;;9.57;8.63;;;22.20;99.90;;;;;;5082599;28;20400;-75
2022/05/23 08:48:20;;;;;;;10.35;9.35;;;22.20;99.90;;;;;;5040906;28;20032;-73
2022/05/23 08:51:10;;;;;;;7.60;6.88;;;22.20;99.90;;;;;;5092742;28;20024;-75
2022/05/23 08:53:43;;;;;;;9.35;7.80;;;22.10;99.90;;;;;;5091182;28;20066;-75
2022/05/23 08:56:23;;;;;;;8.23;7.43;;;22.10;99.90;;;;;;5092250;28;20020;-74
2022/05/23 08:58:53;;;;;;;10.77;7.93;;;22.00;99.90;;;;;;5087870;28;20044;-74
2022/05/23 09:01:26;;;;;;;10.02;8.75;;;21.90;99.90;;;;;;5087528;28;20032;-75
2022/05/23 09:04:00;;;;;;;14.40;9.38;;;21.80;99.90;;;;;;5091988;28;20046;-75
2022/05/23 09:06:34;;;;;;;11.55;8.98;;;21.70;99.90;;;;;;5091527;28;20036;-75
2022/05/23 09:09:03;;;;;;;15.10;10.27;;;21.60;99.90;;;;;;5091757;28;20035;-73
2022/05/23 09:11:38;;;;;;;8.27;7.57;;;21.60;99.90;;;;;;5092388;28;20031;-74
2022/05/23 09:14:06;;;;;;;11.80;8.70;;;21.50;99.90;;;;;;5091224;28;20210;-80
2022/05/23 09:16:52;;;;;;;15.70;9.98;;;21.40;99.90;;;;;;5091661;28;20542;-73
2022/05/23 09:19:33;;;;;;;12.48;8.90;;;21.40;99.90;;;;;;5087782;28;20043;-75
2022/05/23 09:22:12;;;;;;;10.48;9.30;;;21.40;99.90;;;;;;5090827;28;20043;-74
2022/05/23 09:24:43;;;;;;;9.17;8.23;;;21.40;99.90;;;;;;5092617;28;20039;-74
2022/05/23 09:27:23;;;;;;;10.88;8.38;;;21.40;99.90;;;;;;5091303;28;20139;-77
2022/05/23 09:29:53;;;;;;;10.02;8.55;;;21.50;99.90;;;;;;5090468;28;20060;-76
2022/05/23 09:32:25;;;;;;;14.13;9.55;;;21.60;99.90;;;;;;5092581;28;20035;-76
2022/05/23 09:34:56;;;;;;;12.63;10.60;;;21.60;99.90;;;;;;5090932;28;20031;-76
2022/05/23 09:37:23;;;;;;;;;;;21.70;99.90;;;;;;5090274;28;20031;-76
2022/05/23 09:39:55;;;;;;;10.10;9.00;;;21.70;99.90;;;;;;5091217;28;19904;-76
2022/05/23 09:48:23;;;;;;;11.27;9.02;;;21.80;99.90;;;;;;5091607;28;20085;-76
2022/05/23 09:51:05;;;;;;;11.52;10.32;;;21.80;99.90;;;;;;5089224;28;20035;-77
2022/05/23 09:53:43;;;;;;;12.77;11.25;;;21.80;99.90;;;;;;5091678;28;20023;-77
2022/05/23 09:56:35;;;;;;;13.32;11.13;;;21.90;99.90;;;;;;5091236;28;20476;-78
2022/05/23 09:59:07;;;;;;;13.15;11.60;;;21.90;99.90;;;;;;5089472;28;20032;-77
2022/05/23 10:01:33;;;;;;;14.98;9.85;;;21.90;99.90;;;;;;5091642;28;20032;-76
2022/05/23 10:04:00;;;;;;;14.40;12.00;;;21.90;99.90;;;;;;5089588;28;20099;-77
2022/05/23 10:06:37;;;;;;;12.57;9.57;;;21.90;99.90;;;;;;5086492;28;20131;-75
2022/05/23 10:09:05;;;;;;;12.00;9.48;;;21.90;99.90;;;;;;5091068;28;20019;-76
2022/05/23 10:11:37;;;;;;;10.13;9.13;;;21.90;99.90;;;;;;5090578;28;20039;-76
2022/05/23 10:14:06;;;;;;;18.00;10.95;;;21.90;99.90;;;;;;5091517;28;20032;-76
2022/05/23 10:16:45;;;;;;;19.80;10.70;;;22.00;99.90;;;;;;5090890;28;20036;-76
2022/05/23 10:19:22;;;;;;;20.20;12.07;;;21.90;99.90;;;;;;5090760;28;20036;-76
2022/05/23 10:22:03;;;;;;;15.88;11.25;;;21.90;99.90;;;;;;5090705;28;20484;-75
2022/05/23 10:24:30;;;;;;;12.60;11.30;;;21.90;99.90;;;;;;5066737;28;20064;-75
2022/05/23 10:26:57;;;;;;;12.98;10.73;;;21.90;99.90;;;;;;5090371;28;20024;-76
2022/05/23 10:29:51;;;;;;;11.25;10.07;;;22.10;99.90;;;;;;5090933;28;20384;-76
2022/05/23 10:32:27;;;;;;;16.73;11.85;;;22.30;99.90;;;;;;5090612;28;20031;-75
2022/05/23 10:35:05;;;;;;;13.23;11.10;;;22.50;99.90;;;;;;5087306;28;20077;-75
2022/05/23 10:37:36;;;;;;;14.43;9.68;;;22.60;99.90;;;;;;5090894;28;20067;-74
2022/05/23 10:43:19;;;;;;;11.15;9.07;;;23.00;99.90;;;;;;5086950;28;20447;-76
2022/05/23 10:45:54;;;;;;;10.65;9.73;;;23.30;99.90;;;;;;5090568;28;20035;-74
2022/05/23 10:48:38;;;;;;;11.38;10.18;;;23.50;99.90;;;;;;5084297;28;20147;-75
2022/05/23 10:51:23;;;;;;;12.30;9.23;;;23.70;99.90;;;;;;5089647;28;20025;-75
2022/05/23 10:54:15;;;;;;;11.45;10.35;;;23.80;99.90;;;;;;5086556;28;20372;-75
2022/05/23 10:57:02;;;;;;;11.80;9.18;;;24.10;99.90;;;;;;5088070;28;20024;-74
2022/05/23 10:59:28;;;;;;;13.88;9.57;;;24.30;99.90;;;;;;5087942;28;20040;-73
2022/05/23 11:02:09;;;;;;;9.20;8.40;;;24.40;99.50;;;;;;5089167;28;20439;-74
2022/05/23 11:04:50;;;;;;;9.98;7.72;;;24.40;98.80;;;;;;5089281;28;20024;-74
2022/05/23 11:07:41;;;;;;;11.15;8.30;;;24.40;98.40;;;;;;5090003;28;20066;-74
2022/05/23 11:10:34;;;;;;;8.50;7.68;;;24.40;98.50;;;;;;5088779;28;20044;-75
2022/05/23 11:13:12;;;;;;;7.45;6.75;;;24.30;98.40;;;;;;5087057;28;20047;-75
2022/05/23 11:15:44;;;;;;;10.38;6.50;;;24.20;98.70;;;;;;5090219;28;20027;-74
2022/05/23 11:18:30;;;;;;;7.38;6.30;;;24.10;98.40;;;;;;5090746;28;20035;-74
2022/05/23 11:21:00;;;;;;;8.75;7.55;;;24.00;98.60;;;;;;5082054;28;20044;-74
2022/05/23 11:23:35;;;;;;;11.90;8.88;;;24.10;99.00;;;;;;5090717;28;20119;-76
2022/05/23 11:26:10;;;;;;;8.77;7.95;;;24.10;99.40;;;;;;5090427;28;20033;-74
2022/05/23 11:34:46;;;;;;;11.02;8.68;;;24.00;99.30;;;;;;5093896;28;20111;-74
2022/05/23 11:39:56;;;;;;;11.23;8.60;;;23.90;99.40;;;;;;5089746;28;20479;-75
2022/05/23 11:42:26;;;;;;;8.18;7.47;;;23.90;99.50;;;;;;5094216;28;20383;-76
2022/05/23 11:48:14;;;;;;;13.32;10.25;;;24.00;99.20;;;;;;5093137;28;20089;-74
2022/05/23 11:50:50;;;;;;;11.80;10.30;;;24.00;98.60;;;;;;5093414;28;20039;-74
2022/05/23 11:53:30;;;;;;;10.32;9.27;;;24.00;98.80;;;;;;5093316;28;20460;-76
2022/05/23 11:55:55;;;;;;;10.43;9.25;;;24.10;98.80;;;;;;5089738;28;20024;-76
2022/05/23 11:58:50;;;;;;;9.50;8.50;;;24.10;98.40;;;;;;5093594;28;20048;-74
2022/05/23 12:01:25;;;;;;;11.70;8.27;;;24.10;98.30;;;;;;5086158;28;20064;-73
2022/05/23 12:03:56;;;;;;;10.65;9.55;;;24.20;98.50;;;;;;5092243;28;20020;-74
2022/05/23 12:06:24;;;;;;;10.07;8.30;;;24.20;98.20;;;;;;5093683;28;20035;-75
2022/05/23 12:09:11;;;;;;;10.63;9.63;;;24.10;98.20;;;;;;5092590;28;20021;-75
2022/05/23 12:11:51;;;;;;;15.05;10.52;;;24.00;97.90;;;;;;5092726;28;20480;-75
2022/05/23 12:14:18;;;;;;;11.05;8.30;;;23.80;98.20;;;;;;5106066;28;20024;-75
2022/05/23 12:16:56;;;;;;;10.30;8.50;;;23.60;98.80;;;;;;5109296;28;20082;-75
2022/05/23 12:19:38;;;;;;;16.30;9.80;;;23.50;99.70;;;;;;5095956;28;20031;-75
2022/05/23 12:22:27;;;;;;;9.75;8.77;;;23.20;99.90;;;;;;5096535;28;20081;-74
2022/05/23 12:25:01;;;;;;;8.05;7.28;;;23.00;99.90;;;;;;5077319;28;20032;-74
2022/05/23 12:27:37;;;;;;;10.95;8.05;;;22.80;99.90;;;;;;5103083;28;20028;-73
2022/05/23 12:30:21;;;;;;;9.93;8.93;;;22.60;99.90;;;;;;5105311;28;20040;-74
2022/05/23 12:32:52;;;;;;;10.98;9.90;;;22.50;99.90;;;;;;5105815;28;20023;-74
2022/05/23 12:35:26;;;;;;;8.85;7.72;;;22.30;99.90;;;;;;5099529;28;20084;-75
2022/05/23 12:37:58;;;;;;;12.48;9.73;;;22.20;99.90;;;;;;5107163;28;20024;-75
2022/05/23 12:40:33;;;;;;;18.60;10.02;;;22.10;99.90;;;;;;5108812;28;20514;-75
2022/05/23 12:43:36;;;;;;;10.73;8.48;;;22.00;99.90;;;;;;5107423;28;20746;-74
2022/05/23 12:46:17;;;;;;;10.60;9.60;;;22.00;99.90;;;;;;5092971;28;20039;-75
2022/05/23 12:49:22;;;;;;;13.30;9.50;;;22.00;99.90;;;;;;5096648;28;20015;-75
2022/05/23 12:51:53;;;;;;;12.57;10.07;;;22.00;99.90;;;;;;5097680;28;20081;-75
2022/05/23 12:54:37;;;;;;;9.18;8.23;;;21.90;99.90;;;;;;5096961;28;20043;-75
2022/05/23 12:57:31;;;;;;;10.32;9.32;;;21.90;99.90;;;;;;5095986;28;20063;-75
2022/05/23 13:00:13;;;;;;;10.35;9.13;;;21.80;99.90;;;;;;5092087;28;20020;-75
2022/05/23 13:02:50;;;;;;;11.52;10.45;;;21.70;99.90;;;;;;5097008;28;20596;-75
2022/05/23 13:05:34;;;;;;;10.63;8.73;;;21.80;99.90;;;;;;5098678;28;20036;-74
2022/05/23 13:08:15;;;;;;;11.93;10.82;;;21.70;99.90;;;;;;5079230;28;20387;-74
2022/05/23 13:10:43;;;;;;;14.25;11.70;;;21.70;99.90;;;;;;5094479;28;20447;-76
2022/05/23 13:13:35;;;;;;;16.67;11.70;;;21.90;99.90;;;;;;5098811;28;20020;-74
2022/05/23 13:16:21;;;;;;;18.92;12.27;;;21.50;99.90;;;;;;5100636;28;20020;-76
2022/05/23 13:24:48;;;;;;;27.67;16.13;;;21.10;99.90;;;;;;5103737;28;20042;-76
2022/05/23 13:27:05;;;;;;;16.92;13.15;;;20.90;99.90;;;;;;5097375;28;20024;-77
2022/05/23 13:29:32;;;;;;;23.05;14.30;;;20.60;99.90;;;;;;5093203;28;20048;-79
2022/05/23 13:32:04;;;;;;;16.27;13.52;;;20.50;99.90;;;;;;5092837;28;20021;-77
2022/05/23 13:34:35;;;;;;;19.70;13.70;;;20.30;99.90;;;;;;5092020;28;20027;-76
2022/05/23 13:37:00;;;;;;;15.25;13.35;;;20.10;99.90;;;;;;5092276;28;20024;-77
2022/05/23 13:39:26;;;;;;;20.35;13.60;;;20.00;99.90;;;;;;5092510;28;20028;-76
2022/05/23 13:41:52;;;;;;;19.02;14.93;;;19.80;99.90;;;;;;5091539;28;20056;-78
2022/05/23 13:44:25;;;;;;;17.33;15.43;;;19.70;99.90;;;;;;5091582;28;20031;-76
2022/05/23 13:47:00;;;;;;;24.20;17.33;;;19.50;99.90;;;;;;5091805;28;20031;-76
2022/05/23 13:49:36;;;;;;;19.30;16.65;;;19.20;99.90;;;;;;5090802;28;20463;-74
2022/05/23 13:52:06;;;;;;;25.67;17.77;;;19.00;99.90;;;;;;5091431;28;20036;-75
2022/05/23 13:54:36;;;;;;;21.23;16.15;;;18.80;99.90;;;;;;5092259;28;20421;-75
2022/05/23 13:57:15;;;;;;;18.42;16.63;;;18.60;99.90;;;;;;5090297;28;20044;-76
2022/05/23 13:59:46;;;;;;;18.67;15.57;;;18.50;99.90;;;;;;5091192;28;20032;-76
2022/05/23 14:02:20;;;;;;;15.25;12.85;;;18.30;99.90;;;;;;5090958;28;20123;-75
2022/05/23 14:04:47;;;;;;;16.90;12.82;;;18.10;99.90;;;;;;5085809;28;20020;-75